Terminal Aerodrome Forecast
Issued by NWS Cleveland, OH

Home | Current Version | Previous Version | Graphics & Text | Print | Product List | Glossary On
Versions: 1 2 3 4 5 6 7 8 9 10 11 12 13 14 15 16 17
311
FTUS41 KCLE 212335
TAFYNG
TAF
KYNG 212335Z 2200/2224 22010KT P6SM OVC250
     FM220400 26009KT P6SM OVC050
      TEMPO 2204/2206 -SHRA OVC025
     FM220600 30010G18KT 5SM -SHRASN OVC025
     FM220900 30010KT P6SM -SHSN OVC025
     FM221500 31008KT P6SM BKN035=

USA.gov is the U.S. government's official web portal to all federal, state and local government web resources and services.